首页
METAR-TAF:

METAR-TAF

机场 :

West Plains Municipal Airport

West Plains, 密蘇里州, 美国

纬度: 36-52-45N, 经度: 091-54-18W, 海拔: 374米

当前天气观测

该预报发布于50分钟前的09:53 UTC
风速4节,风向
温度 10°C
湿度 76%
气压 1018 hPa
能見度: 16.1公里
天空无云

METAR: KUNO 020953Z AUTO 10004KT 10SM CLR 10/06 A3007 RMK AO2 SLP177 T01000061

时间: 05:43 (10:43 UTC)


TAF: 丢失

超过4000个机场的气象观测和天气预报(METAR&TAF报告)。

可查询的气象台以黄色和红色小点在地图上表示。

将鼠标移到小点上方,可查看气象台名称。

然后点击查看天气观测和预报。

如需切换地图:点击带黑十字的绿色按钮放大地图;点击带横线的绿色按钮缩小地图;或者点击绿色箭头查看邻近地区的地图。


METAR-TAF: